Kezdőlap
METAR-TAF:

METAR-TAF

Repülőterek :

Polokwane, Dél-afrikai Köztársaság

földrajzi szélesség: 23-50-43S, földrajzi hosszúság: 29-27-31E, magasság: 1242 m

Jelenlegi meteorológiai megfigyelések

A jelentés 23 perccel ezelõtt készült, 06:00 UTC
Déli szél 3 kt
Hőmérséklet 14°C
Páratartalom 51%
Légköri nyomás 1025 hPa
Látótávolság: 8000 m

METAR: FAPP 160600Z 19003KT 8000 NSC 14/04 Q1025 NOSIG

Idő: 08:23 (06:23 UTC)

Előrejelzés

A jelentés 3 órával és 23 perccel ezelõtt készült, 03:00 UTC
Az előrejelzés 16-én 04 óra UTC és 16-én 15 óra UTC között érvényes
Déli szél 6 kt
Látótávolság 10 km, vagy több
felhőtlen 1500 m magasságban, és nincs gomolyfelhõ
16-én 07 óra UTC és 16-én 09 óra UTC között fokozatosan kialakuló
Északi szél 8 kt

TAF: FAPP 160300Z 1604/1615 19006KT CAVOK BECMG 1607/1609 35008KT TX29/1613Z TN12/1604Z

Meteorológiai megfigyelések és előrejelzések több, mint 4000 repülőtéren (METAR és TAF jelentéseket).

A térképen piros és sárga pontok jelzik az elérhető meteorológiai állomásokat.

Mozgassa az egeret a pont fölött, hogy megjelenjen az állomás neve.

Azután kattintson az időjárási megfigyelések és előrejelzések megtekintéséhez.

A térkép megváltoztatása: kattintson a fekete keresztel jelölt zöld gombra ráközelítéshez, a vonallal jelölt zöld gombra távolításhoz, vagy a zöld nyilakra a szomszédos térképek eléréséhez.


METAR-TAF: